Riverton, WY

7:44 AM MST on December 07, 2016 (GMT -0700)
Logan Park | | Change Station

Elev 4984 ft 43.04 °N, 108.39 °W | Updated 0 second ago

Overcast
Overcast
7.0 °F
Feels Like 7 °F
N
0.0
Wind Variable Wind from NNW
Gusts 0.0 mph

Today
High -- | Low -- °F
--% Chance of Precip.
Yesterday
High -- | Low -- °F
Precip. -- in
Pressure 30.41 in
Visibility 9.0 miles
Clouds Overcast 1700 ft
Windchill 7 °F
Dew Point 4 °F
Humidity 81%
Rainfall 0.00 in
Snow Depth Not available.
7:31 AM 4:38 PM
First Quarter, 53% visible
METAR KRIW 071353Z AUTO 35004KT 9SM OVC017 M15/M18 A3014 RMK AO2 SNE1254 SLP297 P0000 T11501178
Pressure 30.41 in
Visibility 9.0 miles
Clouds Overcast 1700 ft
Windchill 7 °F
Dew Point 4 °F
Humidity 81%
Rainfall 0.00 in
Snow Depth Not available.
7:31 AM 4:38 PM
First Quarter, 53% visible
METAR KRIW 071353Z AUTO 35004KT 9SM OVC017 M15/M18 A3014 RMK AO2 SNE1254 SLP297 P0000 T11501178

10-Day Weather Forecast

Almanac

Astronomy

Dec. 07, 2016 Rise Set
Actual Time
Civil Twilight
Nautical Twilight
Astronomical Twilight
Moon
Length of Visible Light
Length of Day
Tomorrow will be .
, % of the Moon is Illuminated

Today's Extremes

State Highs State Lows

Community

WunderPhotos

Upload Photos

1,956,116 photos uploaded!

WunderBlog® & News

Nearby

Air Quality

  Air Quality AQ Index Pollutant
Not available.

Snow Depth

Station Depth Elevation

Earthquake Activity

City Distance Mag. Time & Date
Minimum magnitude displayed is 2.5.

Coastal Water Temperatures

Place Temperature

Stations

Nearby Weather Stations

Station Location Temp. Windchill Dew Point Humidity Wind Precip. Elev Updated Type
                   

Watches & Warnings

There are currently no watches in effect.